DRZA/AJY METAR and TAF weather

Enter ICAO airport designator
Station Type Date Time Source
DRZA METAR 2022/06/27 08:00 UTC NOAA

DRZA 270800Z 30008KT CAVOK 32/17 Q1014


Station Type Date Time Source
DRZA Decoded METAR 2022/06/27 08:00 UTC NOAA

Agadez, Niger (DRZA) 16-58N 007-59E 502M
Jun 27, 2022 - 04:00 AM EDT / 2022.06.27 0800 UTC
Wind: from the WNW (300 degrees) at 9 MPH (8 KT):0
Visibility: greater than 7 mile(s):0
Temperature: 89 F (32 C)
Dew Point: 62 F (17 C)
Relative Humidity: 40%
Pressure (altimeter): 29.94 in. Hg (1014 hPa)
ob: DRZA 270800Z 30008KT CAVOK 32/17 Q1014
cycle: 8

Station Type Date Time Source
DRZA TAF 2022/06/27 06:21 UTC NOAA

TAF DRZA 270500Z 2706/2806 28008KT CAVOK PROB30 2714/2720 TS FEW050CB

Example: see airport list